sensor_id;sensor_type;location;lat;lon;timestamp;P1;durP1;ratioP1;P2;durP2;ratioP2
37857;SDS011;23695;55.868;37.472;2022-10-16T00:01:31;14.30;;;7.13;;
37857;SDS011;23695;55.868;37.472;2022-10-16T00:03:59;12.38;;;7.60;;
37857;SDS011;23695;55.868;37.472;2022-10-16T00:06:29;13.25;;;8.02;;
37857;SDS011;23695;55.868;37.472;2022-10-16T00:08:57;20.50;;;8.50;;
37857;SDS011;23695;55.868;37.472;2022-10-16T00:11:29;19.52;;;8.35;;
37857;SDS011;23695;55.868;37.472;2022-10-16T00:14:04;18.13;;;7.50;;
37857;SDS011;23695;55.868;37.472;2022-10-16T00:16:33;16.80;;;7.18;;
37857;SDS011;23695;55.868;37.472;2022-10-16T00:19:01;16.20;;;8.45;;
37857;SDS011;23695;55.868;37.472;2022-10-16T00:21:29;13.98;;;7.00;;
37857;SDS011;23695;55.868;37.472;2022-10-16T00:24:15;18.23;;;8.52;;
37857;SDS011;23695;55.868;37.472;2022-10-16T00:26:43;18.23;;;7.95;;
37857;SDS011;23695;55.868;37.472;2022-10-16T00:29:10;12.27;;;7.00;;
37857;SDS011;23695;55.868;37.472;2022-10-16T00:31:37;17.15;;;6.95;;
37857;SDS011;23695;55.868;37.472;2022-10-16T00:34:05;15.73;;;6.88;;
37857;SDS011;23695;55.868;37.472;2022-10-16T00:36:32;17.45;;;8.05;;
37857;SDS011;23695;55.868;37.472;2022-10-16T00:38:59;20.27;;;7.88;;
37857;SDS011;23695;55.868;37.472;2022-10-16T00:41:29;19.35;;;7.78;;
37857;SDS011;23695;55.868;37.472;2022-10-16T00:43:57;14.85;;;7.38;;
37857;SDS011;23695;55.868;37.472;2022-10-16T00:46:27;21.55;;;8.38;;
37857;SDS011;23695;55.868;37.472;2022-10-16T00:49:06;18.98;;;7.40;;
37857;SDS011;23695;55.868;37.472;2022-10-16T00:51:37;13.98;;;7.55;;
37857;SDS011;23695;55.868;37.472;2022-10-16T00:54:08;16.80;;;7.90;;
37857;SDS011;23695;55.868;37.472;2022-10-16T00:56:38;20.08;;;7.88;;
37857;SDS011;23695;55.868;37.472;2022-10-16T00:59:07;16.95;;;8.00;;
37857;SDS011;23695;55.868;37.472;2022-10-16T01:01:40;15.57;;;7.90;;
37857;SDS011;23695;55.868;37.472;2022-10-16T01:04:07;17.10;;;8.68;;
37857;SDS011;23695;55.868;37.472;2022-10-16T01:09:11;22.15;;;8.55;;
37857;SDS011;23695;55.868;37.472;2022-10-16T01:14:46;18.17;;;8.40;;
37857;SDS011;23695;55.868;37.472;2022-10-16T01:20:10;17.77;;;8.35;;
37857;SDS011;23695;55.868;37.472;2022-10-16T01:31:40;17.33;;;7.88;;
37857;SDS011;23695;55.868;37.472;2022-10-16T01:36:45;16.10;;;8.32;;
37857;SDS011;23695;55.868;37.472;2022-10-16T01:39:18;17.65;;;7.68;;
37857;SDS011;23695;55.868;37.472;2022-10-16T01:41:50;19.27;;;8.00;;
37857;SDS011;23695;55.868;37.472;2022-10-16T01:44:33;14.52;;;7.45;;
37857;SDS011;23695;55.868;37.472;2022-10-16T01:47:03;16.92;;;7.35;;
37857;SDS011;23695;55.868;37.472;2022-10-16T01:49:33;23.27;;;8.25;;
37857;SDS011;23695;55.868;37.472;2022-10-16T01:54:32;18.02;;;7.15;;
37857;SDS011;23695;55.868;37.472;2022-10-16T01:57:02;14.95;;;8.05;;
37857;SDS011;23695;55.868;37.472;2022-10-16T01:59:37;20.02;;;7.90;;
37857;SDS011;23695;55.868;37.472;2022-10-16T02:02:09;16.25;;;7.88;;
37857;SDS011;23695;55.868;37.472;2022-10-16T02:04:39;18.25;;;7.47;;
37857;SDS011;23695;55.868;37.472;2022-10-16T02:07:12;18.45;;;7.65;;
37857;SDS011;23695;55.868;37.472;2022-10-16T02:09:39;17.45;;;7.78;;
37857;SDS011;23695;55.868;37.472;2022-10-16T02:12:10;13.38;;;7.43;;
37857;SDS011;23695;55.868;37.472;2022-10-16T02:14:53;19.48;;;7.63;;
37857;SDS011;23695;55.868;37.472;2022-10-16T02:17:21;14.27;;;7.35;;
37857;SDS011;23695;55.868;37.472;2022-10-16T02:19:49;18.42;;;7.47;;
37857;SDS011;23695;55.868;37.472;2022-10-16T02:22:23;15.93;;;7.55;;
37857;SDS011;23695;55.868;37.472;2022-10-16T02:25:16;17.35;;;7.32;;
37857;SDS011;23695;55.868;37.472;2022-10-16T02:27:55;16.27;;;7.43;;
37857;SDS011;23695;55.868;37.472;2022-10-16T02:33:10;14.50;;;7.22;;
37857;SDS011;23695;55.868;37.472;2022-10-16T02:35:42;10.85;;;7.05;;
37857;SDS011;23695;55.868;37.472;2022-10-16T02:38:14;11.70;;;6.97;;
37857;SDS011;23695;55.868;37.472;2022-10-16T02:40:42;15.48;;;7.32;;
37857;SDS011;23695;55.868;37.472;2022-10-16T02:43:10;15.88;;;7.55;;
37857;SDS011;23695;55.868;37.472;2022-10-16T02:45:38;13.75;;;7.85;;
37857;SDS011;23695;55.868;37.472;2022-10-16T02:48:05;21.35;;;7.22;;
37857;SDS011;23695;55.868;37.472;2022-10-16T02:50:32;14.25;;;6.65;;
37857;SDS011;23695;55.868;37.472;2022-10-16T02:52:59;11.45;;;6.47;;
37857;SDS011;23695;55.868;37.472;2022-10-16T02:55:27;12.52;;;7.28;;
37857;SDS011;23695;55.868;37.472;2022-10-16T02:57:54;16.05;;;7.38;;
37857;SDS011;23695;55.868;37.472;2022-10-16T03:00:21;18.17;;;7.05;;
37857;SDS011;23695;55.868;37.472;2022-10-16T03:02:49;16.17;;;7.00;;
37857;SDS011;23695;55.868;37.472;2022-10-16T03:05:16;14.10;;;7.82;;
37857;SDS011;23695;55.868;37.472;2022-10-16T03:07:43;15.52;;;8.00;;
37857;SDS011;23695;55.868;37.472;2022-10-16T03:10:10;12.48;;;6.45;;
37857;SDS011;23695;55.868;37.472;2022-10-16T03:12:37;16.15;;;7.50;;
37857;SDS011;23695;55.868;37.472;2022-10-16T03:15:04;16.45;;;6.97;;
37857;SDS011;23695;55.868;37.472;2022-10-16T03:17:33;13.93;;;7.53;;
37857;SDS011;23695;55.868;37.472;2022-10-16T03:20:00;11.68;;;6.75;;
37857;SDS011;23695;55.868;37.472;2022-10-16T03:22:29;11.43;;;6.60;;
37857;SDS011;23695;55.868;37.472;2022-10-16T03:24:56;16.58;;;7.05;;
37857;SDS011;23695;55.868;37.472;2022-10-16T03:27:23;12.02;;;7.30;;
37857;SDS011;23695;55.868;37.472;2022-10-16T03:29:50;13.02;;;6.95;;
37857;SDS011;23695;55.868;37.472;2022-10-16T03:32:17;9.77;;;6.30;;
37857;SDS011;23695;55.868;37.472;2022-10-16T03:34:46;16.98;;;7.80;;
37857;SDS011;23695;55.868;37.472;2022-10-16T03:37:13;11.77;;;7.10;;
37857;SDS011;23695;55.868;37.472;2022-10-16T03:39:40;13.20;;;7.53;;
37857;SDS011;23695;55.868;37.472;2022-10-16T03:42:07;13.40;;;7.20;;
37857;SDS011;23695;55.868;37.472;2022-10-16T03:44:34;22.15;;;6.70;;
37857;SDS011;23695;55.868;37.472;2022-10-16T03:47:01;14.10;;;7.93;;
37857;SDS011;23695;55.868;37.472;2022-10-16T03:49:28;13.75;;;7.30;;
37857;SDS011;23695;55.868;37.472;2022-10-16T03:51:55;15.95;;;7.40;;
37857;SDS011;23695;55.868;37.472;2022-10-16T03:54:22;13.27;;;6.70;;
37857;SDS011;23695;55.868;37.472;2022-10-16T03:56:49;14.95;;;7.75;;
37857;SDS011;23695;55.868;37.472;2022-10-16T03:59:17;13.43;;;7.07;;
37857;SDS011;23695;55.868;37.472;2022-10-16T04:01:44;17.10;;;7.10;;
37857;SDS011;23695;55.868;37.472;2022-10-16T04:04:11;12.77;;;6.93;;
37857;SDS011;23695;55.868;37.472;2022-10-16T04:06:38;13.95;;;7.07;;
37857;SDS011;23695;55.868;37.472;2022-10-16T04:09:05;20.23;;;8.45;;
37857;SDS011;23695;55.868;37.472;2022-10-16T04:11:32;11.32;;;7.65;;
37857;SDS011;23695;55.868;37.472;2022-10-16T04:13:59;10.73;;;6.88;;
37857;SDS011;23695;55.868;37.472;2022-10-16T04:16:27;15.55;;;7.18;;
37857;SDS011;23695;55.868;37.472;2022-10-16T04:18:54;15.32;;;7.60;;
37857;SDS011;23695;55.868;37.472;2022-10-16T04:21:21;13.50;;;7.45;;
37857;SDS011;23695;55.868;37.472;2022-10-16T04:23:48;18.40;;;8.18;;
37857;SDS011;23695;55.868;37.472;2022-10-16T04:26:15;13.82;;;7.97;;
37857;SDS011;23695;55.868;37.472;2022-10-16T04:28:42;11.68;;;7.28;;
37857;SDS011;23695;55.868;37.472;2022-10-16T04:31:10;14.43;;;7.28;;
37857;SDS011;23695;55.868;37.472;2022-10-16T04:33:36;13.90;;;7.45;;
37857;SDS011;23695;55.868;37.472;2022-10-16T04:36:04;17.88;;;7.53;;
37857;SDS011;23695;55.868;37.472;2022-10-16T04:38:31;14.70;;;8.02;;
37857;SDS011;23695;55.868;37.472;2022-10-16T04:40:58;19.52;;;7.53;;
37857;SDS011;23695;55.868;37.472;2022-10-16T04:43:26;18.00;;;7.88;;
37857;SDS011;23695;55.868;37.472;2022-10-16T04:45:58;13.48;;;7.15;;
37857;SDS011;23695;55.868;37.472;2022-10-16T04:48:25;13.93;;;7.30;;
37857;SDS011;23695;55.868;37.472;2022-10-16T04:50:52;15.25;;;7.25;;
37857;SDS011;23695;55.868;37.472;2022-10-16T04:53:21;12.43;;;7.22;;
37857;SDS011;23695;55.868;37.472;2022-10-16T04:55:49;12.32;;;7.60;;
37857;SDS011;23695;55.868;37.472;2022-10-16T04:58:16;17.80;;;8.15;;
37857;SDS011;23695;55.868;37.472;2022-10-16T05:00:44;14.20;;;7.85;;
37857;SDS011;23695;55.868;37.472;2022-10-16T05:03:12;12.90;;;6.82;;
37857;SDS011;23695;55.868;37.472;2022-10-16T05:05:43;14.57;;;7.82;;
37857;SDS011;23695;55.868;37.472;2022-10-16T05:08:12;17.33;;;7.65;;
37857;SDS011;23695;55.868;37.472;2022-10-16T05:10:43;17.70;;;7.70;;
37857;SDS011;23695;55.868;37.472;2022-10-16T05:15:38;18.30;;;7.75;;
37857;SDS011;23695;55.868;37.472;2022-10-16T05:18:05;15.75;;;7.15;;
37857;SDS011;23695;55.868;37.472;2022-10-16T05:20:32;14.80;;;7.47;;
37857;SDS011;23695;55.868;37.472;2022-10-16T05:22:59;16.35;;;7.60;;
37857;SDS011;23695;55.868;37.472;2022-10-16T05:25:26;14.20;;;6.82;;
37857;SDS011;23695;55.868;37.472;2022-10-16T05:27:53;16.45;;;7.53;;
37857;SDS011;23695;55.868;37.472;2022-10-16T05:30:21;16.85;;;8.15;;
37857;SDS011;23695;55.868;37.472;2022-10-16T05:32:48;12.68;;;7.43;;
37857;SDS011;23695;55.868;37.472;2022-10-16T05:35:17;16.35;;;7.18;;
37857;SDS011;23695;55.868;37.472;2022-10-16T05:37:45;15.25;;;8.70;;
37857;SDS011;23695;55.868;37.472;2022-10-16T05:40:12;18.17;;;7.97;;
37857;SDS011;23695;55.868;37.472;2022-10-16T05:42:40;15.18;;;7.43;;
37857;SDS011;23695;55.868;37.472;2022-10-16T05:45:08;15.30;;;7.43;;
37857;SDS011;23695;55.868;37.472;2022-10-16T05:47:36;14.48;;;8.25;;
37857;SDS011;23695;55.868;37.472;2022-10-16T05:50:04;15.18;;;7.78;;
37857;SDS011;23695;55.868;37.472;2022-10-16T05:52:31;24.15;;;8.55;;
37857;SDS011;23695;55.868;37.472;2022-10-16T05:54:58;16.67;;;7.75;;
37857;SDS011;23695;55.868;37.472;2022-10-16T05:57:25;13.27;;;7.40;;
37857;SDS011;23695;55.868;37.472;2022-10-16T05:59:52;15.20;;;7.80;;
37857;SDS011;23695;55.868;37.472;2022-10-16T06:02:20;14.43;;;7.82;;
37857;SDS011;23695;55.868;37.472;2022-10-16T06:04:47;17.80;;;7.82;;
37857;SDS011;23695;55.868;37.472;2022-10-16T06:07:14;18.77;;;8.38;;
37857;SDS011;23695;55.868;37.472;2022-10-16T06:09:41;22.02;;;8.18;;
37857;SDS011;23695;55.868;37.472;2022-10-16T06:12:09;21.65;;;7.88;;
37857;SDS011;23695;55.868;37.472;2022-10-16T06:14:36;13.45;;;8.25;;
37857;SDS011;23695;55.868;37.472;2022-10-16T06:17:03;19.02;;;8.25;;
37857;SDS011;23695;55.868;37.472;2022-10-16T06:19:30;19.83;;;8.52;;
37857;SDS011;23695;55.868;37.472;2022-10-16T06:21:58;15.68;;;8.23;;
37857;SDS011;23695;55.868;37.472;2022-10-16T06:24:25;16.98;;;7.78;;
37857;SDS011;23695;55.868;37.472;2022-10-16T06:26:52;23.77;;;8.63;;
37857;SDS011;23695;55.868;37.472;2022-10-16T06:29:19;16.58;;;8.07;;
37857;SDS011;23695;55.868;37.472;2022-10-16T06:31:46;16.58;;;7.80;;
37857;SDS011;23695;55.868;37.472;2022-10-16T06:34:13;20.83;;;7.88;;
37857;SDS011;23695;55.868;37.472;2022-10-16T06:36:40;20.20;;;8.50;;
37857;SDS011;23695;55.868;37.472;2022-10-16T06:39:08;16.23;;;7.57;;
37857;SDS011;23695;55.868;37.472;2022-10-16T06:41:35;23.48;;;8.35;;
37857;SDS011;23695;55.868;37.472;2022-10-16T06:44:14;16.95;;;7.97;;
37857;SDS011;23695;55.868;37.472;2022-10-16T06:46:41;18.38;;;7.47;;
37857;SDS011;23695;55.868;37.472;2022-10-16T06:49:08;21.88;;;7.82;;
37857;SDS011;23695;55.868;37.472;2022-10-16T06:51:35;13.45;;;8.23;;
37857;SDS011;23695;55.868;37.472;2022-10-16T06:54:08;12.52;;;7.97;;
37857;SDS011;23695;55.868;37.472;2022-10-16T06:56:35;17.80;;;8.45;;
37857;SDS011;23695;55.868;37.472;2022-10-16T06:59:02;19.85;;;7.93;;
37857;SDS011;23695;55.868;37.472;2022-10-16T07:01:30;16.38;;;7.55;;
37857;SDS011;23695;55.868;37.472;2022-10-16T07:03:57;17.58;;;8.30;;
37857;SDS011;23695;55.868;37.472;2022-10-16T07:06:26;14.63;;;7.57;;
37857;SDS011;23695;55.868;37.472;2022-10-16T07:08:55;19.80;;;8.82;;
37857;SDS011;23695;55.868;37.472;2022-10-16T07:11:22;12.07;;;7.32;;
37857;SDS011;23695;55.868;37.472;2022-10-16T07:13:50;16.92;;;7.25;;
37857;SDS011;23695;55.868;37.472;2022-10-16T07:16:25;16.60;;;7.85;;
37857;SDS011;23695;55.868;37.472;2022-10-16T07:18:54;16.10;;;7.15;;
37857;SDS011;23695;55.868;37.472;2022-10-16T07:21:27;14.65;;;7.40;;
37857;SDS011;23695;55.868;37.472;2022-10-16T07:23:56;16.65;;;6.60;;
37857;SDS011;23695;55.868;37.472;2022-10-16T07:26:25;16.92;;;7.10;;
37857;SDS011;23695;55.868;37.472;2022-10-16T07:28:53;10.27;;;6.20;;
37857;SDS011;23695;55.868;37.472;2022-10-16T07:31:20;11.57;;;6.90;;
37857;SDS011;23695;55.868;37.472;2022-10-16T07:33:48;11.27;;;6.97;;
37857;SDS011;23695;55.868;37.472;2022-10-16T07:36:16;15.27;;;6.82;;
37857;SDS011;23695;55.868;37.472;2022-10-16T07:38:44;13.35;;;6.85;;
37857;SDS011;23695;55.868;37.472;2022-10-16T07:41:12;13.30;;;7.70;;
37857;SDS011;23695;55.868;37.472;2022-10-16T07:43:48;17.70;;;8.60;;
37857;SDS011;23695;55.868;37.472;2022-10-16T07:46:17;16.73;;;7.13;;
37857;SDS011;23695;55.868;37.472;2022-10-16T07:48:45;24.08;;;8.63;;
37857;SDS011;23695;55.868;37.472;2022-10-16T07:51:14;19.10;;;8.05;;
37857;SDS011;23695;55.868;37.472;2022-10-16T07:53:43;19.73;;;7.95;;
37857;SDS011;23695;55.868;37.472;2022-10-16T07:56:10;24.88;;;8.50;;
37857;SDS011;23695;55.868;37.472;2022-10-16T07:58:38;21.55;;;7.40;;
37857;SDS011;23695;55.868;37.472;2022-10-16T08:01:07;24.63;;;8.02;;
37857;SDS011;23695;55.868;37.472;2022-10-16T08:03:36;15.80;;;7.93;;
37857;SDS011;23695;55.868;37.472;2022-10-16T08:06:03;19.85;;;7.50;;
37857;SDS011;23695;55.868;37.472;2022-10-16T08:08:31;12.43;;;8.10;;
37857;SDS011;23695;55.868;37.472;2022-10-16T08:10:58;17.55;;;9.00;;
37857;SDS011;23695;55.868;37.472;2022-10-16T08:13:25;22.98;;;8.38;;
37857;SDS011;23695;55.868;37.472;2022-10-16T08:15:53;22.70;;;7.90;;
37857;SDS011;23695;55.868;37.472;2022-10-16T08:18:21;20.17;;;7.88;;
37857;SDS011;23695;55.868;37.472;2022-10-16T08:20:54;19.27;;;8.38;;
37857;SDS011;23695;55.868;37.472;2022-10-16T08:23:23;18.83;;;9.10;;
37857;SDS011;23695;55.868;37.472;2022-10-16T08:25:53;15.98;;;8.25;;
37857;SDS011;23695;55.868;37.472;2022-10-16T08:28:20;18.27;;;8.65;;
37857;SDS011;23695;55.868;37.472;2022-10-16T08:30:48;19.55;;;8.43;;
37857;SDS011;23695;55.868;37.472;2022-10-16T08:33:15;16.30;;;8.18;;
37857;SDS011;23695;55.868;37.472;2022-10-16T08:35:42;13.80;;;7.82;;
37857;SDS011;23695;55.868;37.472;2022-10-16T08:38:09;14.57;;;8.68;;
37857;SDS011;23695;55.868;37.472;2022-10-16T08:40:37;25.58;;;8.50;;
37857;SDS011;23695;55.868;37.472;2022-10-16T08:45:40;16.57;;;8.33;;
37857;SDS011;23695;55.868;37.472;2022-10-16T08:51:08;16.73;;;7.47;;
37857;SDS011;23695;55.868;37.472;2022-10-16T08:56:17;21.13;;;7.60;;
37857;SDS011;23695;55.868;37.472;2022-10-16T08:58:44;14.93;;;6.63;;
37857;SDS011;23695;55.868;37.472;2022-10-16T09:01:19;14.50;;;7.13;;
37857;SDS011;23695;55.868;37.472;2022-10-16T09:04:10;15.73;;;7.05;;
37857;SDS011;23695;55.868;37.472;2022-10-16T09:06:56;12.68;;;6.43;;
37857;SDS011;23695;55.868;37.472;2022-10-16T09:17:37;16.48;;;6.57;;
37857;SDS011;23695;55.868;37.472;2022-10-16T09:22:56;20.80;;;7.53;;
37857;SDS011;23695;55.868;37.472;2022-10-16T09:25:37;19.50;;;5.93;;
37857;SDS011;23695;55.868;37.472;2022-10-16T09:28:07;8.82;;;5.50;;
37857;SDS011;23695;55.868;37.472;2022-10-16T09:30:37;13.00;;;5.20;;
37857;SDS011;23695;55.868;37.472;2022-10-16T09:33:05;15.38;;;5.60;;
37857;SDS011;23695;55.868;37.472;2022-10-16T09:35:44;12.73;;;6.13;;
37857;SDS011;23695;55.868;37.472;2022-10-16T09:38:22;13.82;;;6.28;;
37857;SDS011;23695;55.868;37.472;2022-10-16T09:40:50;19.40;;;5.72;;
37857;SDS011;23695;55.868;37.472;2022-10-16T09:43:31;13.05;;;5.43;;
37857;SDS011;23695;55.868;37.472;2022-10-16T09:46:06;16.27;;;5.28;;
37857;SDS011;23695;55.868;37.472;2022-10-16T09:51:06;15.75;;;6.30;;
37857;SDS011;23695;55.868;37.472;2022-10-16T09:53:54;9.30;;;5.15;;
37857;SDS011;23695;55.868;37.472;2022-10-16T09:56:26;8.38;;;4.93;;
37857;SDS011;23695;55.868;37.472;2022-10-16T09:59:00;9.50;;;5.15;;
37857;SDS011;23695;55.868;37.472;2022-10-16T10:01:56;9.73;;;4.68;;
37857;SDS011;23695;55.868;37.472;2022-10-16T10:04:23;14.60;;;5.30;;
37857;SDS011;23695;55.868;37.472;2022-10-16T10:06:52;10.30;;;4.97;;
37857;SDS011;23695;55.868;37.472;2022-10-16T10:09:27;10.95;;;5.43;;
37857;SDS011;23695;55.868;37.472;2022-10-16T10:12:02;10.35;;;4.93;;
37857;SDS011;23695;55.868;37.472;2022-10-16T10:14:35;15.65;;;5.10;;
37857;SDS011;23695;55.868;37.472;2022-10-16T10:19:38;15.70;;;5.10;;
37857;SDS011;23695;55.868;37.472;2022-10-16T10:22:26;12.75;;;4.43;;
37857;SDS011;23695;55.868;37.472;2022-10-16T10:55:20;18.63;;;5.05;;
37857;SDS011;23695;55.868;37.472;2022-10-16T11:03:46;12.50;;;5.10;;
37857;SDS011;23695;55.868;37.472;2022-10-16T11:06:38;9.23;;;5.15;;
37857;SDS011;23695;55.868;37.472;2022-10-16T11:09:11;13.05;;;5.20;;
37857;SDS011;23695;55.868;37.472;2022-10-16T11:12:15;9.07;;;4.78;;
37857;SDS011;23695;55.868;37.472;2022-10-16T11:17:14;15.25;;;5.63;;
37857;SDS011;23695;55.868;37.472;2022-10-16T11:19:54;17.13;;;5.95;;
37857;SDS011;23695;55.868;37.472;2022-10-16T11:22:49;12.18;;;5.88;;
37857;SDS011;23695;55.868;37.472;2022-10-16T11:25:26;11.65;;;5.03;;
37857;SDS011;23695;55.868;37.472;2022-10-16T11:27:56;14.52;;;5.32;;
37857;SDS011;23695;55.868;37.472;2022-10-16T11:30:26;16.83;;;5.93;;
37857;SDS011;23695;55.868;37.472;2022-10-16T11:35:55;8.82;;;5.25;;
37857;SDS011;23695;55.868;37.472;2022-10-16T11:38:45;15.43;;;5.97;;
37857;SDS011;23695;55.868;37.472;2022-10-16T11:46:34;15.57;;;6.10;;
37857;SDS011;23695;55.868;37.472;2022-10-16T11:49:25;15.23;;;6.15;;
37857;SDS011;23695;55.868;37.472;2022-10-16T11:52:06;15.32;;;5.65;;
37857;SDS011;23695;55.868;37.472;2022-10-16T11:57:24;17.73;;;7.10;;
37857;SDS011;23695;55.868;37.472;2022-10-16T12:00:10;12.30;;;5.45;;
37857;SDS011;23695;55.868;37.472;2022-10-16T12:08:29;15.63;;;6.60;;
37857;SDS011;23695;55.868;37.472;2022-10-16T12:11:05;18.13;;;5.15;;
37857;SDS011;23695;55.868;37.472;2022-10-16T12:13:49;10.32;;;5.32;;
37857;SDS011;23695;55.868;37.472;2022-10-16T12:18:48;12.90;;;5.35;;
37857;SDS011;23695;55.868;37.472;2022-10-16T12:21:16;18.17;;;5.55;;
37857;SDS011;23695;55.868;37.472;2022-10-16T12:26:31;11.43;;;5.25;;
37857;SDS011;23695;55.868;37.472;2022-10-16T12:32:04;14.95;;;5.35;;
37857;SDS011;23695;55.868;37.472;2022-10-16T12:35:18;12.88;;;4.93;;
37857;SDS011;23695;55.868;37.472;2022-10-16T12:38:15;8.15;;;5.05;;
37857;SDS011;23695;55.868;37.472;2022-10-16T12:40:46;12.07;;;5.05;;
37857;SDS011;23695;55.868;37.472;2022-10-16T12:45:59;13.77;;;5.03;;
37857;SDS011;23695;55.868;37.472;2022-10-16T12:48:29;8.65;;;5.18;;
37857;SDS011;23695;55.868;37.472;2022-10-16T12:59:38;11.32;;;5.30;;
37857;SDS011;23695;55.868;37.472;2022-10-16T13:06:35;15.13;;;6.05;;
37857;SDS011;23695;55.868;37.472;2022-10-16T13:14:29;14.00;;;5.57;;
37857;SDS011;23695;55.868;37.472;2022-10-16T13:17:19;10.82;;;5.57;;
37857;SDS011;23695;55.868;37.472;2022-10-16T13:28:03;17.95;;;6.07;;
37857;SDS011;23695;55.868;37.472;2022-10-16T13:30:34;13.57;;;5.68;;
37857;SDS011;23695;55.868;37.472;2022-10-16T13:36:17;14.52;;;5.93;;
37857;SDS011;23695;55.868;37.472;2022-10-16T13:38:47;15.23;;;5.88;;
37857;SDS011;23695;55.868;37.472;2022-10-16T13:41:17;11.63;;;6.28;;
37857;SDS011;23695;55.868;37.472;2022-10-16T13:43:51;17.63;;;6.05;;
37857;SDS011;23695;55.868;37.472;2022-10-16T13:46:23;11.82;;;5.82;;
37857;SDS011;23695;55.868;37.472;2022-10-16T13:49:03;15.30;;;6.35;;
37857;SDS011;23695;55.868;37.472;2022-10-16T13:51:32;16.08;;;5.82;;
37857;SDS011;23695;55.868;37.472;2022-10-16T13:53:59;13.05;;;6.32;;
37857;SDS011;23695;55.868;37.472;2022-10-16T13:56:28;12.52;;;6.03;;
37857;SDS011;23695;55.868;37.472;2022-10-16T13:59:01;13.90;;;5.63;;
37857;SDS011;23695;55.868;37.472;2022-10-16T14:01:33;12.40;;;6.20;;
37857;SDS011;23695;55.868;37.472;2022-10-16T14:04:07;13.00;;;6.10;;
37857;SDS011;23695;55.868;37.472;2022-10-16T14:06:42;16.48;;;6.32;;
37857;SDS011;23695;55.868;37.472;2022-10-16T14:12:03;14.63;;;5.65;;
37857;SDS011;23695;55.868;37.472;2022-10-16T14:14:42;13.75;;;5.70;;
37857;SDS011;23695;55.868;37.472;2022-10-16T14:17:22;21.95;;;6.55;;
37857;SDS011;23695;55.868;37.472;2022-10-16T14:19:56;12.98;;;5.50;;
37857;SDS011;23695;55.868;37.472;2022-10-16T14:22:33;13.30;;;6.68;;
37857;SDS011;23695;55.868;37.472;2022-10-16T14:25:20;18.88;;;6.72;;
37857;SDS011;23695;55.868;37.472;2022-10-16T14:28:03;16.85;;;6.82;;
37857;SDS011;23695;55.868;37.472;2022-10-16T14:36:17;20.50;;;7.47;;
37857;SDS011;23695;55.868;37.472;2022-10-16T14:39:19;12.73;;;6.30;;
37857;SDS011;23695;55.868;37.472;2022-10-16T14:41:50;15.23;;;6.30;;
37857;SDS011;23695;55.868;37.472;2022-10-16T14:44:19;13.88;;;6.57;;
37857;SDS011;23695;55.868;37.472;2022-10-16T14:46:50;17.85;;;6.75;;
37857;SDS011;23695;55.868;37.472;2022-10-16T14:49:18;14.48;;;6.35;;
37857;SDS011;23695;55.868;37.472;2022-10-16T14:51:47;21.05;;;7.03;;
37857;SDS011;23695;55.868;37.472;2022-10-16T14:54:16;14.65;;;6.22;;
37857;SDS011;23695;55.868;37.472;2022-10-16T14:56:46;15.52;;;6.85;;
37857;SDS011;23695;55.868;37.472;2022-10-16T14:59:35;14.60;;;6.13;;
37857;SDS011;23695;55.868;37.472;2022-10-16T15:04:47;14.43;;;6.93;;
37857;SDS011;23695;55.868;37.472;2022-10-16T15:07:14;16.38;;;6.45;;
37857;SDS011;23695;55.868;37.472;2022-10-16T15:09:42;18.88;;;6.80;;
37857;SDS011;23695;55.868;37.472;2022-10-16T15:12:15;17.13;;;6.53;;
37857;SDS011;23695;55.868;37.472;2022-10-16T15:14:42;14.50;;;6.78;;
37857;SDS011;23695;55.868;37.472;2022-10-16T15:17:10;14.10;;;5.93;;
37857;SDS011;23695;55.868;37.472;2022-10-16T15:19:38;12.30;;;5.95;;
37857;SDS011;23695;55.868;37.472;2022-10-16T15:22:05;14.70;;;6.22;;
37857;SDS011;23695;55.868;37.472;2022-10-16T15:24:32;17.67;;;5.65;;
37857;SDS011;23695;55.868;37.472;2022-10-16T15:26:59;14.60;;;5.97;;
37857;SDS011;23695;55.868;37.472;2022-10-16T15:29:26;11.13;;;5.30;;
37857;SDS011;23695;55.868;37.472;2022-10-16T15:31:54;12.48;;;5.68;;
37857;SDS011;23695;55.868;37.472;2022-10-16T15:34:21;13.77;;;6.03;;
37857;SDS011;23695;55.868;37.472;2022-10-16T15:36:48;11.95;;;5.93;;
37857;SDS011;23695;55.868;37.472;2022-10-16T15:39:16;10.60;;;5.70;;
37857;SDS011;23695;55.868;37.472;2022-10-16T15:41:46;16.02;;;6.45;;
37857;SDS011;23695;55.868;37.472;2022-10-16T15:44:20;10.07;;;5.50;;
37857;SDS011;23695;55.868;37.472;2022-10-16T15:46:55;13.02;;;5.53;;
37857;SDS011;23695;55.868;37.472;2022-10-16T15:49:23;16.13;;;5.72;;
37857;SDS011;23695;55.868;37.472;2022-10-16T15:51:50;9.38;;;5.90;;
37857;SDS011;23695;55.868;37.472;2022-10-16T15:54:19;9.38;;;5.13;;
37857;SDS011;23695;55.868;37.472;2022-10-16T15:56:48;14.05;;;6.05;;
37857;SDS011;23695;55.868;37.472;2022-10-16T15:59:17;18.65;;;6.68;;
37857;SDS011;23695;55.868;37.472;2022-10-16T16:01:44;11.55;;;6.22;;
37857;SDS011;23695;55.868;37.472;2022-10-16T16:04:11;15.48;;;6.38;;
37857;SDS011;23695;55.868;37.472;2022-10-16T16:06:58;14.45;;;6.25;;
37857;SDS011;23695;55.868;37.472;2022-10-16T16:09:25;17.13;;;6.55;;
37857;SDS011;23695;55.868;37.472;2022-10-16T16:11:52;17.52;;;6.57;;
37857;SDS011;23695;55.868;37.472;2022-10-16T16:14:20;11.73;;;6.82;;
37857;SDS011;23695;55.868;37.472;2022-10-16T16:16:47;17.25;;;6.43;;
37857;SDS011;23695;55.868;37.472;2022-10-16T16:19:14;15.98;;;6.28;;
37857;SDS011;23695;55.868;37.472;2022-10-16T16:21:43;18.38;;;6.63;;
37857;SDS011;23695;55.868;37.472;2022-10-16T16:24:10;18.35;;;7.05;;
37857;SDS011;23695;55.868;37.472;2022-10-16T16:26:37;13.40;;;6.57;;
37857;SDS011;23695;55.868;37.472;2022-10-16T16:29:13;11.52;;;6.55;;
37857;SDS011;23695;55.868;37.472;2022-10-16T16:31:41;16.83;;;6.07;;
37857;SDS011;23695;55.868;37.472;2022-10-16T16:34:09;10.05;;;5.90;;
37857;SDS011;23695;55.868;37.472;2022-10-16T16:36:37;14.43;;;6.68;;
37857;SDS011;23695;55.868;37.472;2022-10-16T16:39:05;16.60;;;6.32;;
37857;SDS011;23695;55.868;37.472;2022-10-16T16:41:34;13.35;;;5.45;;
37857;SDS011;23695;55.868;37.472;2022-10-16T16:44:02;15.63;;;6.38;;
37857;SDS011;23695;55.868;37.472;2022-10-16T16:46:34;15.32;;;6.00;;
37857;SDS011;23695;55.868;37.472;2022-10-16T16:49:03;13.20;;;6.80;;
37857;SDS011;23695;55.868;37.472;2022-10-16T16:51:31;10.80;;;6.57;;
37857;SDS011;23695;55.868;37.472;2022-10-16T16:54:05;17.50;;;6.47;;
37857;SDS011;23695;55.868;37.472;2022-10-16T16:56:35;15.27;;;6.70;;
37857;SDS011;23695;55.868;37.472;2022-10-16T16:59:03;14.82;;;6.45;;
37857;SDS011;23695;55.868;37.472;2022-10-16T17:01:31;12.10;;;5.55;;
37857;SDS011;23695;55.868;37.472;2022-10-16T17:03:58;12.63;;;6.03;;
37857;SDS011;23695;55.868;37.472;2022-10-16T17:06:26;21.55;;;6.85;;
37857;SDS011;23695;55.868;37.472;2022-10-16T17:08:58;13.73;;;6.47;;
37857;SDS011;23695;55.868;37.472;2022-10-16T17:11:27;15.10;;;6.57;;
37857;SDS011;23695;55.868;37.472;2022-10-16T17:13:55;11.98;;;6.38;;
37857;SDS011;23695;55.868;37.472;2022-10-16T17:16:28;16.42;;;6.93;;
37857;SDS011;23695;55.868;37.472;2022-10-16T17:18:58;14.65;;;6.25;;
37857;SDS011;23695;55.868;37.472;2022-10-16T17:21:27;15.32;;;6.30;;